createdAt,value
2022-10-18T00:01:09.348Z,102046.28
2022-10-18T00:03:37.803Z,102045.56
2022-10-18T00:06:07.637Z,102053.47
2022-10-18T00:08:35.322Z,102053.47
2022-10-18T00:11:04.712Z,102052.75
2022-10-18T00:13:32.752Z,102060.78
2022-10-18T00:16:04.204Z,102059.34
2022-10-18T00:18:32.782Z,102060.19
2022-10-18T00:21:03.348Z,102061.41
2022-10-18T00:23:33.220Z,102067.94
2022-10-18T00:26:05.470Z,102073.00
2022-10-18T00:28:34.907Z,102069.88
2022-10-18T00:31:15.669Z,102074.75
2022-10-18T00:33:45.072Z,102067.84
2022-10-18T00:36:14.483Z,102081.19
2022-10-18T00:38:43.064Z,102090.53
2022-10-18T00:41:14.870Z,102082.00
2022-10-18T00:43:58.692Z,102085.31
2022-10-18T00:46:30.127Z,102085.81
2022-10-18T00:49:02.374Z,102085.38
2022-10-18T00:51:37.322Z,102080.78
2022-10-18T00:54:05.948Z,102089.41
2022-10-18T00:56:35.803Z,102083.97
2022-10-18T00:59:03.791Z,102091.94
2022-10-18T01:01:31.626Z,102093.88
2022-10-18T01:03:59.518Z,102095.09
2022-10-18T01:06:29.016Z,102094.13
2022-10-18T01:09:15.314Z,102095.06
2022-10-18T01:12:10.384Z,102083.72
2022-10-18T01:14:51.319Z,102087.81
2022-10-18T01:17:28.557Z,102087.03
2022-10-18T01:20:36.153Z,102094.50
2022-10-18T01:23:16.537Z,102094.06
2022-10-18T01:25:58.441Z,102096.13
2022-10-18T01:28:53.366Z,102076.44
2022-10-18T01:31:27.697Z,102086.66
2022-10-18T01:34:03.474Z,102072.22
2022-10-18T01:36:36.781Z,102066.63
2022-10-18T01:39:15.446Z,102071.78
2022-10-18T01:41:47.680Z,102084.88
2022-10-18T01:44:22.374Z,102087.66
2022-10-18T01:46:53.979Z,102091.47
2022-10-18T01:49:21.937Z,102092.28
2022-10-18T01:51:49.836Z,102090.66
2022-10-18T01:54:34.755Z,102096.13
2022-10-18T01:57:12.063Z,102090.41
2022-10-18T01:59:52.943Z,102099.22
2022-10-18T02:02:41.334Z,102098.34
2022-10-18T02:05:22.870Z,102097.72
2022-10-18T02:08:12.672Z,102100.00
2022-10-18T02:10:55.467Z,102098.06
2022-10-18T02:13:26.829Z,102090.09
2022-10-18T02:16:02.377Z,102086.50
2022-10-18T02:18:40.676Z,102086.25
2022-10-18T02:21:14.523Z,102084.69
2022-10-18T02:23:45.791Z,102077.78
2022-10-18T02:26:15.492Z,102076.38
2022-10-18T02:28:44.740Z,102083.09
2022-10-18T02:31:22.148Z,102078.78
2022-10-18T02:33:59.570Z,102090.50
2022-10-18T02:36:35.554Z,102088.69
2022-10-18T02:39:12.127Z,102101.09
2022-10-18T02:41:39.950Z,102101.47
2022-10-18T02:44:07.864Z,102106.00
2022-10-18T02:46:36.349Z,102119.03
2022-10-18T02:49:05.562Z,102112.56
2022-10-18T02:51:34.015Z,102116.09
2022-10-18T02:54:01.818Z,102111.09
2022-10-18T02:56:29.843Z,102113.19
2022-10-18T02:58:57.866Z,102115.59
2022-10-18T03:01:25.746Z,102116.47
2022-10-18T03:03:53.682Z,102106.19
2022-10-18T03:06:22.765Z,102113.41
2022-10-18T03:08:50.560Z,102113.56
2022-10-18T03:11:18.292Z,102122.75
2022-10-18T03:13:46.105Z,102137.25
2022-10-18T03:16:14.038Z,102130.22
2022-10-18T03:18:41.803Z,102137.00
2022-10-18T03:21:10.681Z,102135.31
2022-10-18T03:23:41.748Z,102142.53
2022-10-18T03:26:09.545Z,102141.03
2022-10-18T03:28:37.400Z,102133.13
2022-10-18T03:31:06.321Z,102139.66
2022-10-18T03:33:34.281Z,102142.38
2022-10-18T03:36:02.046Z,102131.09
2022-10-18T03:38:29.876Z,102117.84
2022-10-18T03:40:59.154Z,102139.28
2022-10-18T03:43:26.973Z,102127.78
2022-10-18T03:45:54.893Z,102127.06
2022-10-18T03:48:22.904Z,102131.91
2022-10-18T03:50:50.845Z,102137.44
2022-10-18T03:53:18.707Z,102135.97
2022-10-18T03:55:50.982Z,102146.31
2022-10-18T03:58:20.655Z,102149.84
2022-10-18T04:00:51.023Z,102148.69
2022-10-18T04:03:19.382Z,102156.56
2022-10-18T04:05:48.712Z,102168.13
2022-10-18T04:08:17.727Z,102160.28
2022-10-18T04:10:46.094Z,102159.19
2022-10-18T04:13:14.103Z,102165.88
2022-10-18T04:15:44.338Z,102165.19
2022-10-18T04:18:12.140Z,102169.91
2022-10-18T04:20:39.969Z,102164.56
2022-10-18T04:23:07.915Z,102125.03
2022-10-18T04:25:35.742Z,102169.34
2022-10-18T04:28:04.658Z,102165.50
2022-10-18T04:30:32.511Z,102166.63
2022-10-18T04:33:01.644Z,102165.56
2022-10-18T04:35:29.331Z,102167.38
2022-10-18T04:37:57.173Z,102174.78
2022-10-18T04:40:24.954Z,102168.53
2022-10-18T04:42:52.754Z,102163.88
2022-10-18T04:45:20.528Z,102164.66
2022-10-18T04:47:48.281Z,102169.13
2022-10-18T04:50:17.516Z,102166.75
2022-10-18T04:52:45.372Z,102163.81
2022-10-18T04:55:13.214Z,102158.63
2022-10-18T04:57:40.941Z,102148.03
2022-10-18T05:00:09.617Z,102172.94
2022-10-18T05:02:37.410Z,102178.97
2022-10-18T05:05:08.093Z,102180.09
2022-10-18T05:07:39.618Z,102175.97
2022-10-18T05:10:08.476Z,102168.19
2022-10-18T05:12:36.256Z,102167.97
2022-10-18T05:15:04.825Z,102167.41
2022-10-18T05:17:32.639Z,102152.03
2022-10-18T05:20:00.561Z,102164.06
2022-10-18T05:22:28.651Z,102155.16
2022-10-18T05:24:57.895Z,102157.09
2022-10-18T05:27:25.780Z,102131.41
2022-10-18T05:29:53.574Z,102170.13
2022-10-18T05:32:21.437Z,102164.38
2022-10-18T05:34:49.292Z,102163.00
2022-10-18T05:37:17.088Z,102173.31
2022-10-18T05:39:44.838Z,102159.16
2022-10-18T05:42:14.161Z,102165.84
2022-10-18T05:44:41.985Z,102168.88
2022-10-18T05:47:09.743Z,102177.66
2022-10-18T05:49:37.484Z,102169.13
2022-10-18T05:52:05.903Z,102186.94
2022-10-18T05:54:33.689Z,102182.72
2022-10-18T05:57:01.542Z,102183.78
2022-10-18T05:59:30.724Z,102180.81
2022-10-18T06:01:58.492Z,102175.72
2022-10-18T06:04:26.421Z,102167.56
2022-10-18T06:06:55.923Z,102171.19
2022-10-18T06:09:23.765Z,102171.63
2022-10-18T06:11:51.647Z,102162.13
2022-10-18T06:14:19.501Z,102165.28
2022-10-18T06:16:48.604Z,102158.34
2022-10-18T06:19:16.368Z,102171.16
2022-10-18T06:21:44.589Z,102166.03
2022-10-18T06:24:12.362Z,102168.66
2022-10-18T06:26:40.142Z,102163.22
2022-10-18T06:29:08.664Z,102161.97
2022-10-18T06:31:36.488Z,102153.13
2022-10-18T06:34:05.787Z,102147.78
2022-10-18T06:36:33.819Z,102143.28
2022-10-18T06:39:02.563Z,102158.19
2022-10-18T06:41:30.338Z,102153.31
2022-10-18T06:44:00.226Z,102152.53
2022-10-18T06:46:28.037Z,102157.28
2022-10-18T06:48:56.318Z,102152.59
2022-10-18T06:51:25.666Z,102147.88
2022-10-18T06:54:06.119Z,102154.22
2022-10-18T06:56:41.070Z,102162.72
2022-10-18T06:59:08.884Z,102165.84
2022-10-18T07:01:37.326Z,102171.38
2022-10-18T07:04:05.668Z,102172.88
2022-10-18T07:06:34.913Z,102161.34
2022-10-18T07:09:03.910Z,102168.38
2022-10-18T07:11:31.835Z,102167.91
2022-10-18T07:14:04.247Z,102169.91
2022-10-18T07:16:33.511Z,102183.16
2022-10-18T07:19:01.611Z,102202.34
2022-10-18T07:21:29.840Z,102205.97
2022-10-18T07:23:59.059Z,102210.28
2022-10-18T07:26:30.157Z,102224.91
2022-10-18T07:29:01.509Z,102229.88
2022-10-18T07:31:30.822Z,102221.41
2022-10-18T07:33:58.804Z,102234.63
2022-10-18T07:36:28.339Z,102240.06
2022-10-18T07:38:57.070Z,102230.00
2022-10-18T07:41:27.039Z,102235.41
2022-10-18T07:43:55.007Z,102230.31
2022-10-18T07:46:23.875Z,102225.69
2022-10-18T07:48:52.470Z,102223.06
2022-10-18T07:51:21.911Z,102231.44
2022-10-18T07:53:50.090Z,102235.31
2022-10-18T07:56:21.581Z,102225.47
2022-10-18T07:58:53.768Z,102226.47
2022-10-18T08:01:23.405Z,102233.75
2022-10-18T08:03:52.774Z,102224.34
2022-10-18T08:06:23.649Z,102230.00
2022-10-18T08:08:52.184Z,102233.41
2022-10-18T08:11:22.943Z,102234.28
2022-10-18T08:13:53.182Z,102239.59
2022-10-18T08:16:24.198Z,102249.53
2022-10-18T08:18:52.690Z,102250.13
2022-10-18T08:21:22.777Z,102240.88
2022-10-18T08:23:51.307Z,102247.84
2022-10-18T08:26:22.177Z,102241.66
2022-10-18T08:28:58.253Z,102238.88
2022-10-18T08:31:32.984Z,102239.19
2022-10-18T08:34:00.947Z,102245.34
2022-10-18T08:36:28.996Z,102256.47
2022-10-18T08:38:56.762Z,102257.47
2022-10-18T08:41:45.524Z,102246.47
2022-10-18T08:44:21.343Z,102250.34
2022-10-18T08:46:56.476Z,102256.47
2022-10-18T08:49:32.519Z,102256.81
2022-10-18T08:52:00.571Z,102228.63
2022-10-18T08:54:39.562Z,102242.78
2022-10-18T08:57:18.078Z,102250.03
2022-10-18T08:59:46.005Z,102243.13
2022-10-18T09:02:39.795Z,102233.28
2022-10-18T09:05:31.628Z,102245.94
2022-10-18T09:08:47.913Z,102238.50
2022-10-18T09:11:36.981Z,102230.44
2022-10-18T09:14:31.261Z,102224.16
2022-10-18T09:17:15.870Z,102230.97
2022-10-18T09:20:10.126Z,102226.91
2022-10-18T09:22:53.474Z,102203.81
2022-10-18T09:25:24.777Z,102227.50
2022-10-18T09:27:57.262Z,102244.94
2022-10-18T09:30:49.318Z,102241.22
2022-10-18T09:33:44.804Z,102242.44
2022-10-18T09:36:22.320Z,102240.69
2022-10-18T09:38:57.267Z,102238.97
2022-10-18T09:41:35.407Z,102225.94
2022-10-18T09:44:11.843Z,102229.22
2022-10-18T09:46:46.756Z,102223.09
2022-10-18T09:49:22.995Z,102220.25
2022-10-18T09:51:55.025Z,102203.78
2022-10-18T09:54:30.931Z,102215.22
2022-10-18T09:57:07.586Z,102224.84
2022-10-18T09:59:41.248Z,102236.63
2022-10-18T10:02:16.475Z,102247.03
2022-10-18T10:04:44.911Z,102242.53
2022-10-18T10:07:19.474Z,102249.56
2022-10-18T10:09:50.541Z,102270.75
2022-10-18T10:12:34.497Z,102273.34
2022-10-18T10:15:18.983Z,102252.50
2022-10-18T10:17:56.117Z,102255.56
2022-10-18T10:20:29.434Z,102227.16
2022-10-18T10:23:09.861Z,102247.09
2022-10-18T10:25:39.584Z,102242.19
2022-10-18T10:28:15.405Z,102242.84
2022-10-18T10:30:43.305Z,102218.25
2022-10-18T10:33:38.579Z,102233.09
2022-10-18T10:36:18.730Z,102229.44
2022-10-18T10:39:05.583Z,102231.28
2022-10-18T10:41:35.019Z,102222.63
2022-10-18T10:44:06.289Z,102215.72
2022-10-18T10:46:38.077Z,102211.56
2022-10-18T10:52:08.585Z,102202.78
2022-10-18T10:54:40.865Z,102203.09
2022-10-18T10:57:24.061Z,102187.03
2022-10-18T10:59:55.469Z,102188.13
2022-10-18T11:02:30.902Z,102176.38
2022-10-18T11:05:23.706Z,102171.84
2022-10-18T11:07:57.540Z,102181.88
2022-10-18T11:10:33.550Z,102178.47
2022-10-18T11:13:18.808Z,102166.53
2022-10-18T11:15:53.450Z,102157.00
2022-10-18T11:18:29.182Z,102178.28
2022-10-18T11:21:07.876Z,102167.38
2022-10-18T11:23:38.912Z,102161.19
2022-10-18T11:26:36.047Z,102160.66
2022-10-18T11:29:43.954Z,102171.59
2022-10-18T11:32:25.555Z,102158.72
2022-10-18T11:35:20.725Z,102141.69
2022-10-18T11:38:11.978Z,102134.78
2022-10-18T11:41:18.455Z,102136.25
2022-10-18T11:44:03.998Z,102134.03
2022-10-18T11:47:02.438Z,102127.84
2022-10-18T11:49:54.313Z,102124.94
2022-10-18T11:52:40.244Z,102121.66
2022-10-18T11:55:31.901Z,102132.00
2022-10-18T11:58:19.244Z,102124.34
2022-10-18T12:00:56.388Z,102097.75
2022-10-18T12:03:35.997Z,102098.47
2022-10-18T12:06:13.123Z,102115.34
2022-10-18T12:08:47.285Z,102114.38
2022-10-18T12:11:22.026Z,102123.94
2022-10-18T12:13:55.692Z,102112.06
2022-10-18T12:16:49.844Z,102106.91
2022-10-18T12:19:26.630Z,102114.09
2022-10-18T12:22:03.422Z,102118.75
2022-10-18T12:24:35.377Z,102107.41
2022-10-18T12:27:04.261Z,102107.19
2022-10-18T12:29:45.442Z,102095.84
2022-10-18T12:32:23.607Z,102078.72
2022-10-18T12:34:58.926Z,102096.38
2022-10-18T12:37:47.689Z,102094.13
2022-10-18T12:40:22.096Z,102099.22
2022-10-18T12:42:54.414Z,102089.22
2022-10-18T12:45:32.338Z,102088.31
2022-10-18T12:48:06.352Z,102090.13
2022-10-18T12:50:39.663Z,102079.97
2022-10-18T12:53:18.878Z,102083.91
2022-10-18T12:55:48.999Z,102088.94
2022-10-18T12:58:32.921Z,102091.75
2022-10-18T13:01:07.954Z,102094.25
2022-10-18T13:04:04.190Z,102087.41
2022-10-18T13:07:20.532Z,102094.72
2022-10-18T13:10:35.055Z,102082.44
2022-10-18T13:13:39.262Z,102084.88
2022-10-18T13:16:22.484Z,102062.47
2022-10-18T13:18:57.074Z,102066.50
2022-10-18T13:21:44.897Z,102077.66
2022-10-18T13:24:27.797Z,102079.72
2022-10-18T13:27:41.338Z,102077.50
2022-10-18T13:30:32.793Z,102076.38
2022-10-18T13:33:25.082Z,102063.88
2022-10-18T13:35:57.071Z,102057.66
2022-10-18T13:38:48.397Z,102068.25
2022-10-18T13:41:20.259Z,102067.88
2022-10-18T13:44:28.295Z,102063.16
2022-10-18T13:47:37.302Z,102061.94
2022-10-18T13:50:30.774Z,102071.22
2022-10-18T13:53:40.223Z,102068.47
2022-10-18T13:56:36.666Z,102066.69
2022-10-18T13:59:29.505Z,102068.72
2022-10-18T14:02:42.987Z,102072.94
2022-10-18T14:05:48.733Z,102076.44
2022-10-18T14:08:23.101Z,102072.22
2022-10-18T14:11:04.161Z,102076.56
2022-10-18T14:13:44.223Z,102073.50
2022-10-18T14:16:33.029Z,102077.75
2022-10-18T14:19:15.150Z,102072.84
2022-10-18T14:21:57.784Z,102083.97
2022-10-18T14:24:29.140Z,102082.50
2022-10-18T14:27:18.620Z,102080.47
2022-10-18T14:29:50.091Z,102088.19
2022-10-18T14:32:29.205Z,102084.22
2022-10-18T14:35:27.264Z,102077.81
2022-10-18T14:37:48.741Z,102086.22
2022-10-18T14:40:37.868Z,102083.25
2022-10-18T14:43:12.158Z,102086.53
2022-10-18T14:45:42.133Z,102087.06
2022-10-18T14:48:17.712Z,102091.69
2022-10-18T14:50:51.435Z,102085.13
2022-10-18T14:53:23.333Z,102085.44
2022-10-18T14:55:56.825Z,102083.06
2022-10-18T14:58:25.161Z,102066.09
2022-10-18T15:00:55.332Z,102074.22
2022-10-18T15:03:24.891Z,102085.06
2022-10-18T15:05:57.020Z,102056.94
2022-10-18T15:08:30.872Z,102072.84
2022-10-18T15:10:59.147Z,102088.78
2022-10-18T15:13:27.360Z,102086.63
2022-10-18T15:15:57.574Z,102085.78
2022-10-18T15:18:28.824Z,102076.91
2022-10-18T15:21:23.987Z,102089.50
2022-10-18T15:23:54.191Z,102082.59
2022-10-18T15:26:29.380Z,102088.50
2022-10-18T15:29:01.682Z,102088.25
2022-10-18T15:31:38.418Z,102088.88
2022-10-18T15:34:16.079Z,102102.00
2022-10-18T15:39:19.288Z,102091.13
2022-10-18T15:41:50.653Z,102095.00
2022-10-18T15:44:27.826Z,102082.88
2022-10-18T15:47:20.318Z,102093.63
2022-10-18T15:49:55.214Z,102077.09
2022-10-18T15:52:41.892Z,102061.16
2022-10-18T15:55:49.210Z,102089.69
2022-10-18T15:58:26.274Z,102089.00
2022-10-18T16:00:58.795Z,102097.81
2022-10-18T16:03:29.311Z,102101.47
2022-10-18T16:06:05.950Z,102074.41
2022-10-18T16:08:40.921Z,102100.28
2022-10-18T16:11:13.972Z,102106.44
2022-10-18T16:13:41.877Z,102112.06
2022-10-18T16:16:16.627Z,102118.88
2022-10-18T16:18:45.878Z,102115.81
2022-10-18T16:21:21.569Z,102123.16
2022-10-18T16:23:50.015Z,102130.72
2022-10-18T16:26:20.864Z,102138.28
2022-10-18T16:28:50.508Z,102134.53
2022-10-18T16:31:21.111Z,102134.41
2022-10-18T16:33:52.026Z,102141.47
2022-10-18T16:36:22.213Z,102138.97
2022-10-18T16:38:51.157Z,102136.06
2022-10-18T16:41:19.477Z,102143.28
2022-10-18T16:43:49.741Z,102130.97
2022-10-18T16:46:21.364Z,102150.91
2022-10-18T16:48:52.771Z,102153.38
2022-10-18T16:51:21.308Z,102150.19
2022-10-18T16:53:49.677Z,102160.38
2022-10-18T16:56:20.892Z,102160.25
2022-10-18T16:58:49.541Z,102160.56
2022-10-18T17:01:20.703Z,102160.78
2022-10-18T17:03:52.029Z,102155.22
2022-10-18T17:06:24.063Z,102163.22
2022-10-18T17:08:53.213Z,102145.78
2022-10-18T17:11:23.978Z,102133.84
2022-10-18T17:13:52.272Z,102153.94
2022-10-18T17:19:03.014Z,102172.66
2022-10-18T17:21:33.582Z,102165.19
2022-10-18T17:24:03.162Z,102166.91
2022-10-18T17:26:32.107Z,102163.13
2022-10-18T17:29:04.088Z,102160.78
2022-10-18T17:31:33.939Z,102159.69
2022-10-18T17:34:03.026Z,102173.25
2022-10-18T17:36:32.487Z,102177.66
2022-10-18T17:39:00.572Z,102169.56
2022-10-18T17:41:28.504Z,102179.75
2022-10-18T17:43:56.476Z,102171.50
2022-10-18T17:46:24.542Z,102182.81
2022-10-18T17:48:52.334Z,102180.75
2022-10-18T17:51:21.655Z,102179.69
2022-10-18T17:53:49.566Z,102183.97
2022-10-18T17:56:17.788Z,102180.06
2022-10-18T17:58:46.793Z,102181.97
2022-10-18T18:01:18.113Z,102193.59
2022-10-18T18:03:47.554Z,102164.34
2022-10-18T18:06:18.747Z,102193.13
2022-10-18T18:08:49.379Z,102184.69
2022-10-18T18:11:18.858Z,102196.41
2022-10-18T18:13:46.713Z,102203.56
2022-10-18T18:16:17.109Z,102206.22
2022-10-18T18:18:45.757Z,102197.50
2022-10-18T18:21:14.687Z,102208.13
2022-10-18T18:23:42.598Z,102209.44
2022-10-18T18:26:12.007Z,102185.56
2022-10-18T18:28:40.131Z,102201.31
2022-10-18T18:31:09.679Z,102212.50
2022-10-18T18:33:38.227Z,102213.31
2022-10-18T18:36:07.973Z,102194.34
2022-10-18T18:38:38.702Z,102204.59
2022-10-18T18:41:10.312Z,102203.66
2022-10-18T18:43:41.765Z,102194.22
2022-10-18T18:46:10.453Z,102195.56
2022-10-18T18:48:38.646Z,102191.53
2022-10-18T18:51:11.609Z,102188.09
2022-10-18T18:53:40.880Z,102193.00
2022-10-18T18:56:11.867Z,102189.22
2022-10-18T18:58:43.938Z,102187.00
2022-10-18T19:01:17.187Z,102183.50
2022-10-18T19:03:47.855Z,102184.63
2022-10-18T19:06:18.396Z,102182.56
2022-10-18T19:08:47.362Z,102197.03
2022-10-18T19:11:18.100Z,102190.38
2022-10-18T19:13:48.014Z,102190.88
2022-10-18T19:16:23.610Z,102187.38
2022-10-18T19:18:58.781Z,102182.44
2022-10-18T19:21:30.004Z,102191.06
2022-10-18T19:23:58.875Z,102180.72
2022-10-18T19:26:33.988Z,102191.06
2022-10-18T19:29:08.504Z,102189.00
2022-10-18T19:31:37.516Z,102192.19
2022-10-18T19:34:07.681Z,102189.00
2022-10-18T19:36:37.107Z,102180.56
2022-10-18T19:39:07.305Z,102191.72
2022-10-18T19:41:35.182Z,102188.84
2022-10-18T19:44:04.686Z,102199.50
2022-10-18T19:46:32.549Z,102195.22
2022-10-18T19:49:00.402Z,102202.22
2022-10-18T19:51:28.662Z,102200.00
2022-10-18T19:53:57.850Z,102211.91
2022-10-18T19:56:28.809Z,102212.72
2022-10-18T19:58:57.858Z,102210.00
2022-10-18T20:01:28.946Z,102204.28
2022-10-18T20:03:57.447Z,102206.31
2022-10-18T20:06:25.654Z,102208.72
2022-10-18T20:08:53.979Z,102211.75
2022-10-18T20:11:25.206Z,102197.56
2022-10-18T20:13:53.477Z,102219.53
2022-10-18T20:16:27.877Z,102213.16
2022-10-18T20:18:59.015Z,102224.94
2022-10-18T20:21:29.503Z,102222.06
2022-10-18T20:23:58.206Z,102223.19
2022-10-18T20:26:26.784Z,102220.31
2022-10-18T20:28:58.141Z,102221.69
2022-10-18T20:31:28.747Z,102219.78
2022-10-18T20:34:00.711Z,102219.28
2022-10-18T20:36:30.641Z,102222.19
2022-10-18T20:38:59.255Z,102205.59
2022-10-18T20:41:30.477Z,102213.00
2022-10-18T20:44:00.843Z,102220.91
2022-10-18T20:46:32.734Z,102219.47
2022-10-18T20:49:03.222Z,102214.25
2022-10-18T20:51:33.457Z,102212.19
2022-10-18T20:54:02.175Z,102216.00
2022-10-18T20:56:31.511Z,102212.13
2022-10-18T20:58:59.365Z,102215.63
2022-10-18T21:01:30.414Z,102208.13
2022-10-18T21:04:02.448Z,102188.88
2022-10-18T21:06:33.547Z,102207.84
2022-10-18T21:09:03.780Z,102209.94
2022-10-18T21:11:36.705Z,102208.13
2022-10-18T21:14:06.552Z,102182.47
2022-10-18T21:16:36.576Z,102202.41
2022-10-18T21:19:08.552Z,102210.03
2022-10-18T21:21:36.563Z,102208.31
2022-10-18T21:24:07.703Z,102210.50
2022-10-18T21:26:37.414Z,102208.09
2022-10-18T21:29:08.243Z,102216.69
2022-10-18T21:31:39.098Z,102211.59
2022-10-18T21:34:13.722Z,102207.19
2022-10-18T21:36:43.076Z,102201.31
2022-10-18T21:39:15.001Z,102207.84
2022-10-18T21:41:43.270Z,102203.56
2022-10-18T21:44:12.598Z,102198.31
2022-10-18T21:46:42.942Z,102198.78
2022-10-18T21:49:13.581Z,102196.88
2022-10-18T21:51:42.348Z,102191.31
2022-10-18T21:54:16.034Z,102198.16
2022-10-18T21:56:44.435Z,102204.69
2022-10-18T21:59:13.167Z,102202.56
2022-10-18T22:01:43.535Z,102204.31
2022-10-18T22:04:21.651Z,102211.84
2022-10-18T22:06:49.921Z,102210.72
2022-10-18T22:09:18.025Z,102208.31
2022-10-18T22:11:49.733Z,102191.78
2022-10-18T22:14:17.595Z,102200.69
2022-10-18T22:16:45.323Z,102203.44
2022-10-18T22:19:13.614Z,102190.25
2022-10-18T22:21:42.778Z,102182.00
2022-10-18T22:24:11.042Z,102180.66
2022-10-18T22:26:41.807Z,102172.78
2022-10-18T22:29:13.517Z,102167.34
2022-10-18T22:31:45.682Z,102161.94
2022-10-18T22:34:16.965Z,102155.75
2022-10-18T22:36:46.854Z,102159.09
2022-10-18T22:39:15.560Z,102158.16
2022-10-18T22:41:44.616Z,102156.25
2022-10-18T22:44:13.269Z,102152.44
2022-10-18T22:46:41.814Z,102147.34
2022-10-18T22:49:09.942Z,102148.44
2022-10-18T22:51:37.781Z,102134.91
2022-10-18T22:54:07.096Z,102137.94
2022-10-18T22:56:34.861Z,102142.41
2022-10-18T22:59:02.679Z,102142.06
2022-10-18T23:01:30.457Z,102144.00
2022-10-18T23:04:00.499Z,102144.31
2022-10-18T23:06:31.587Z,102160.53
2022-10-18T23:09:02.687Z,102154.66
2022-10-18T23:11:33.237Z,102155.28
2022-10-18T23:14:01.517Z,102158.16
2022-10-18T23:16:29.538Z,102162.59
2022-10-18T23:18:59.563Z,102160.53
2022-10-18T23:21:29.185Z,102155.28
2022-10-18T23:23:58.218Z,102165.78
2022-10-18T23:26:28.736Z,102161.66
2022-10-18T23:28:57.891Z,102160.84
2022-10-18T23:31:28.747Z,102159.25
2022-10-18T23:34:01.578Z,102163.88
2022-10-18T23:36:30.469Z,102160.38
2022-10-18T23:38:58.650Z,102161.47
2022-10-18T23:41:27.151Z,102160.22
2022-10-18T23:43:56.855Z,102158.31
2022-10-18T23:46:25.494Z,102156.38
2022-10-18T23:48:53.315Z,102157.34
2022-10-18T23:51:21.063Z,102163.56
2022-10-18T23:53:48.896Z,102153.69
2022-10-18T23:56:17.489Z,102158.16
2022-10-18T23:58:46.296Z,102157.84
